Prof. Albrecht Penck — Y3CH — position and weather

sailwx.info

Track history (hours):
 
Tides and Currents Weather Stations Pressure Air Temp Water Temp Dewpoint Dewpoint Depression Visibility Wind Speed Wind Dir Waves Ship Positions

Oceanographic research ship Prof. Albrecht Penck (Germany)

Detailed information on ship capabilities available from University of Delaware's Ocean Information Center.

Last reported at 2018-Dec-12 10:17 UTC. Time now 2018-Dec-13 15:14 UTC.
Position N 37°37' W 009°33'.

Length 38.6 m; beam 7.2 m; draft 3.2 m.

Type: Other ship. MMSI: 211215130.

Date/timePositionNaut miles runAvg speedWind from/ knotsBaromVisibWave heightAir tempDewpointWater temp
2018-Dec-12 10:17N 37°37' W 009°33'45 6.7
2018-Dec-12 03:31N 38°19' W 009°56'0 6.9
2018-Dec-12 03:30N 38°19' W 009°56'3 6.5
2018-Dec-12 03:00N 38°22' W 009°58'3 6.8
2018-Dec-12 02:30N 38°25' W 009°60'3 7.0
2018-Dec-12 02:01N 38°28' W 010°01'4 7.0
2018-Dec-12 01:30N 38°32' W 010°02'3 6.8
2018-Dec-12 01:00N 38°35' W 010°03'3 6.7
2018-Dec-12 00:30N 38°38' W 010°04'3 6.6
2018-Dec-12 00:00N 38°42' W 010°05'3 7.0
2018-Dec-11 23:30N 38°45' W 010°05'4 7.2
2018-Dec-11 23:00N 38°49' W 010°05'4 7.4
2018-Dec-11 22:30N 38°52' W 010°05'4 7.1
2018-Dec-11 22:00N 38°56' W 010°05'4 7.5
2018-Dec-11 21:30N 38°60' W 010°05'4 7.4
2018-Dec-11 21:00N 39°03' W 010°05'3 6.8
2018-Dec-11 20:30N 39°07' W 010°04'5 6.8
2018-Dec-11 19:43N 39°12' W 010°03'  
2018-Dec-06 11:39N 47°57' W 006°33'3 4.2
2018-Dec-06 10:58N 47°60' W 006°30'5 4.8
2018-Dec-06 09:53N 48°03' W 006°25'6 5.5
2018-Dec-06 08:48N 48°08' W 006°19'7 6.3
2018-Dec-06 07:38N 48°14' W 006°13'117 4.5
2018-Dec-05 05:30N 49°27' W 003°53'76 5.7
2018-Dec-04 16:10N 50°08' W 002°15'2 5.4
2018-Dec-04 15:52N 50°09' W 002°12'2 5.8
2018-Dec-04 15:28N 50°09' W 002°09'3 6.4
2018-Dec-04 15:01N 50°10' W 002°04'4 7.2
2018-Dec-04 14:30N 50°11' W 001°59'100 6.7
2018-Dec-03 23:37N 50°38' E 000°32'4 6.8
2018-Dec-03 23:01N 50°41' E 000°38'0 6.8
2018-Dec-03 22:59N 50°41' E 000°38'5 6.5
2018-Dec-03 22:14N 50°43' E 000°44'2 6.0
2018-Dec-03 21:55N 50°44' E 000°47'3 5.6
2018-Dec-03 21:27N 50°46' E 000°50'14 4.7
2018-Dec-03 18:21N 50°55' E 001°09'2 4.2
2018-Dec-03 17:59N 50°56' E 001°11'2 4.3
2018-Dec-03 17:30N 50°57' E 001°13'2 4.6
2018-Dec-03 17:01N 50°58' E 001°16'2 4.7
2018-Dec-03 16:30N 50°60' E 001°19'2 5.0
2018-Dec-03 16:00N 51°02' E 001°22'3 5.3
2018-Dec-03 15:30N 51°03' E 001°25'3 5.1
2018-Dec-03 15:00N 51°05' E 001°28'2 4.7
2018-Dec-03 14:29N 51°06' E 001°31'2 4.2
2018-Dec-03 13:54N 51°08' E 001°34'2 3.9
2018-Dec-03 13:30N 51°09' E 001°36'2 3.8
2018-Dec-03 13:00N 51°10' E 001°38'2 3.5
2018-Dec-03 12:31N 51°11' E 001°40'2 3.1
2018-Dec-03 12:00N 51°12' E 001°42'2 3.2
2018-Dec-03 11:30N 51°14' E 001°44'2 3.3
2018-Dec-03 11:00N 51°15' E 001°45'1 2.8
2018-Dec-03 10:30N 51°16' E 001°46'1 2.9
2018-Dec-03 10:00N 51°18' E 001°47'1 2.7
2018-Dec-03 09:30N 51°19' E 001°48'1 2.8
2018-Dec-03 09:00N 51°20' E 001°49'2 3.2
2018-Dec-03 08:30N 51°22' E 001°50'2 3.6
2018-Dec-03 07:59N 51°23' E 001°50'2 3.9
2018-Dec-03 07:31N 51°25' E 001°52'2 4.6
2018-Dec-03 07:00N 51°27' E 001°53'2 5.0
2018-Dec-03 06:30N 51°29' E 001°56'5 5.7
2018-Dec-03 05:37N 51°33' E 002°02'1 5.6
2018-Dec-03 05:28N 51°33' E 002°03'68 4.7
2018-Dec-02 14:55N 52°25' E 003°13'  
Track history (hours):
 
Tides and Currents Weather Stations Pressure Air Temp Water Temp Dewpoint Dewpoint Depression Visibility Wind Speed Wind Dir Waves Ship Positions

Oceanographic research ship Prof. Albrecht Penck (Germany)

Detailed information on ship capabilities available from University of Delaware's Ocean Information Center.

Last reported at 2018-Dec-12 10:17 UTC. Time now 2018-Dec-13 15:14 UTC.
Position N 37°37' W 009°33'.

Length 38.6 m; beam 7.2 m; draft 3.2 m.

Type: Other ship. MMSI: 211215130.

Date/timePositionNaut miles runAvg speedWind from/ knotsBaromVisibWave heightAir tempDewpointWater temp
2018-Dec-12 10:17N 37°37' W 009°33'45 6.7
2018-Dec-12 03:31N 38°19' W 009°56'0 6.9
2018-Dec-12 03:30N 38°19' W 009°56'3 6.5
2018-Dec-12 03:00N 38°22' W 009°58'3 6.8
2018-Dec-12 02:30N 38°25' W 009°60'3 7.0
2018-Dec-12 02:01N 38°28' W 010°01'4 7.0
2018-Dec-12 01:30N 38°32' W 010°02'3 6.8
2018-Dec-12 01:00N 38°35' W 010°03'3 6.7
2018-Dec-12 00:30N 38°38' W 010°04'3 6.6
2018-Dec-12 00:00N 38°42' W 010°05'3 7.0
2018-Dec-11 23:30N 38°45' W 010°05'4 7.2
2018-Dec-11 23:00N 38°49' W 010°05'4 7.4
2018-Dec-11 22:30N 38°52' W 010°05'4 7.1
2018-Dec-11 22:00N 38°56' W 010°05'4 7.5
2018-Dec-11 21:30N 38°60' W 010°05'4 7.4
2018-Dec-11 21:00N 39°03' W 010°05'3 6.8
2018-Dec-11 20:30N 39°07' W 010°04'5 6.8
2018-Dec-11 19:43N 39°12' W 010°03'  
2018-Dec-06 11:39N 47°57' W 006°33'3 4.2
2018-Dec-06 10:58N 47°60' W 006°30'5 4.8
2018-Dec-06 09:53N 48°03' W 006°25'6 5.5
2018-Dec-06 08:48N 48°08' W 006°19'7 6.3
2018-Dec-06 07:38N 48°14' W 006°13'117 4.5
2018-Dec-05 05:30N 49°27' W 003°53'76 5.7
2018-Dec-04 16:10N 50°08' W 002°15'2 5.4
2018-Dec-04 15:52N 50°09' W 002°12'2 5.8
2018-Dec-04 15:28N 50°09' W 002°09'3 6.4
2018-Dec-04 15:01N 50°10' W 002°04'4 7.2
2018-Dec-04 14:30N 50°11' W 001°59'100 6.7
2018-Dec-03 23:37N 50°38' E 000°32'4 6.8
2018-Dec-03 23:01N 50°41' E 000°38'0 6.8
2018-Dec-03 22:59N 50°41' E 000°38'5 6.5
2018-Dec-03 22:14N 50°43' E 000°44'2 6.0
2018-Dec-03 21:55N 50°44' E 000°47'3 5.6
2018-Dec-03 21:27N 50°46' E 000°50'14 4.7
2018-Dec-03 18:21N 50°55' E 001°09'2 4.2
2018-Dec-03 17:59N 50°56' E 001°11'2 4.3
2018-Dec-03 17:30N 50°57' E 001°13'2 4.6
2018-Dec-03 17:01N 50°58' E 001°16'2 4.7
2018-Dec-03 16:30N 50°60' E 001°19'2 5.0
2018-Dec-03 16:00N 51°02' E 001°22'3 5.3
2018-Dec-03 15:30N 51°03' E 001°25'3 5.1
2018-Dec-03 15:00N 51°05' E 001°28'2 4.7
2018-Dec-03 14:29N 51°06' E 001°31'2 4.2
2018-Dec-03 13:54N 51°08' E 001°34'2 3.9
2018-Dec-03 13:30N 51°09' E 001°36'2 3.8
2018-Dec-03 13:00N 51°10' E 001°38'2 3.5
2018-Dec-03 12:31N 51°11' E 001°40'2 3.1
2018-Dec-03 12:00N 51°12' E 001°42'2 3.2
2018-Dec-03 11:30N 51°14' E 001°44'2 3.3
2018-Dec-03 11:00N 51°15' E 001°45'1 2.8
2018-Dec-03 10:30N 51°16' E 001°46'1 2.9
2018-Dec-03 10:00N 51°18' E 001°47'1 2.7
2018-Dec-03 09:30N 51°19' E 001°48'1 2.8
2018-Dec-03 09:00N 51°20' E 001°49'2 3.2
2018-Dec-03 08:30N 51°22' E 001°50'2 3.6
2018-Dec-03 07:59N 51°23' E 001°50'2 3.9
2018-Dec-03 07:31N 51°25' E 001°52'2 4.6
2018-Dec-03 07:00N 51°27' E 001°53'2 5.0
2018-Dec-03 06:30N 51°29' E 001°56'5 5.7
2018-Dec-03 05:37N 51°33' E 002°02'1 5.6
2018-Dec-03 05:28N 51°33' E 002°03'68 4.7
2018-Dec-02 14:55N 52°25' E 003°13'  

Dump ship's entire track history